createdAt,value
2023-02-02T00:02:15.722Z,8.97
2023-02-02T00:04:43.150Z,8.93
2023-02-02T00:07:10.352Z,8.89
2023-02-02T00:09:37.544Z,8.84
2023-02-02T00:12:05.052Z,9.16
2023-02-02T00:14:32.180Z,8.20
2023-02-02T00:16:59.439Z,7.36
2023-02-02T00:19:28.070Z,7.87
2023-02-02T00:21:55.346Z,7.57
2023-02-02T00:24:22.901Z,7.35
2023-02-02T00:26:51.353Z,7.99
2023-02-02T00:29:23.746Z,8.40
2023-02-02T00:31:51.349Z,7.80
2023-02-02T00:34:18.698Z,9.09
2023-02-02T00:36:47.171Z,9.25
2023-02-02T00:39:15.648Z,8.88
2023-02-02T00:41:42.792Z,8.52
2023-02-02T00:44:28.789Z,7.53
2023-02-02T00:46:56.235Z,8.82
2023-02-02T00:49:23.457Z,8.00
2023-02-02T00:51:50.841Z,8.22
2023-02-02T00:54:18.337Z,6.87
2023-02-02T00:56:45.479Z,6.96
2023-02-02T00:59:12.677Z,6.96
2023-02-02T01:01:40.277Z,7.40
2023-02-02T01:04:07.456Z,7.56
2023-02-02T01:06:34.853Z,8.44
2023-02-02T01:09:02.372Z,7.37
2023-02-02T01:11:30.894Z,7.09
2023-02-02T01:13:58.124Z,8.27
2023-02-02T01:16:25.731Z,7.60
2023-02-02T01:18:52.991Z,6.86
2023-02-02T01:21:20.156Z,6.79
2023-02-02T01:23:47.696Z,7.14
2023-02-02T01:26:14.846Z,8.07
2023-02-02T01:28:42.158Z,7.49
2023-02-02T01:31:10.776Z,7.61
2023-02-02T01:33:38.013Z,6.97
2023-02-02T01:36:06.841Z,6.84
2023-02-02T01:38:34.372Z,7.51
2023-02-02T01:41:01.740Z,7.04
2023-02-02T01:43:30.033Z,8.21
2023-02-02T01:45:58.657Z,7.14
2023-02-02T01:48:29.529Z,7.09
2023-02-02T01:50:58.217Z,7.82
2023-02-02T01:53:25.609Z,6.92
2023-02-02T01:55:52.746Z,7.35
2023-02-02T01:58:21.945Z,7.11
2023-02-02T02:00:49.371Z,7.98
2023-02-02T02:03:17.771Z,8.42
2023-02-02T02:05:46.969Z,7.92
2023-02-02T02:08:21.820Z,7.94
2023-02-02T02:10:52.075Z,7.49
2023-02-02T02:13:19.592Z,7.52
2023-02-02T02:16:15.957Z,6.89
2023-02-02T02:18:50.730Z,7.76
2023-02-02T02:21:44.252Z,7.45
2023-02-02T02:25:02.069Z,7.51
2023-02-02T02:27:37.640Z,7.96
2023-02-02T02:30:20.648Z,7.64
2023-02-02T02:32:52.841Z,7.74
2023-02-02T02:35:39.048Z,7.52
2023-02-02T02:38:12.268Z,7.41
2023-02-02T02:40:54.011Z,6.90
2023-02-02T02:43:24.194Z,6.81
2023-02-02T02:45:52.569Z,7.05
2023-02-02T02:48:20.248Z,7.32
2023-02-02T02:50:47.802Z,7.85
2023-02-02T02:53:16.442Z,7.94
2023-02-02T02:55:55.055Z,8.70
2023-02-02T02:58:42.798Z,8.89
2023-02-02T03:01:11.073Z,8.92
2023-02-02T03:03:45.739Z,7.61
2023-02-02T03:06:15.344Z,6.92
2023-02-02T03:08:46.749Z,6.66
2023-02-02T03:11:14.025Z,7.35
2023-02-02T03:13:41.416Z,7.84
2023-02-02T03:16:09.788Z,7.52
2023-02-02T03:18:37.053Z,6.61
2023-02-02T03:21:04.218Z,6.93
2023-02-02T03:23:31.666Z,7.19
2023-02-02T03:25:59.685Z,6.46
2023-02-02T03:28:26.882Z,6.87
2023-02-02T03:30:54.430Z,6.72
2023-02-02T03:33:21.616Z,7.86
2023-02-02T03:35:48.978Z,8.46
2023-02-02T03:38:16.422Z,6.67
2023-02-02T03:40:43.708Z,7.12
2023-02-02T03:43:10.885Z,7.73
2023-02-02T03:45:40.754Z,7.77
2023-02-02T03:48:09.442Z,7.84
2023-02-02T03:50:45.774Z,8.16
2023-02-02T03:53:13.181Z,7.67
2023-02-02T03:55:41.538Z,6.75
2023-02-02T03:58:08.686Z,6.13
2023-02-02T04:00:36.217Z,6.69
2023-02-02T04:03:03.720Z,6.90
2023-02-02T04:05:30.899Z,6.92
2023-02-02T04:07:59.212Z,6.12
2023-02-02T04:10:26.673Z,5.45
2023-02-02T04:12:53.802Z,6.24
2023-02-02T04:15:20.971Z,5.43
2023-02-02T04:17:48.386Z,5.49
2023-02-02T04:20:15.564Z,5.50
2023-02-02T04:22:42.706Z,6.15
2023-02-02T04:25:10.141Z,5.41
2023-02-02T04:27:37.385Z,6.43
2023-02-02T04:30:05.838Z,6.17
2023-02-02T04:32:33.290Z,6.29
2023-02-02T04:35:00.447Z,6.64
2023-02-02T04:37:27.592Z,6.68
2023-02-02T04:39:55.406Z,6.29
2023-02-02T04:42:22.565Z,6.38
2023-02-02T04:44:49.708Z,6.98
2023-02-02T04:47:17.119Z,5.49
2023-02-02T04:49:44.264Z,5.61
2023-02-02T04:52:11.585Z,5.08
2023-02-02T04:54:39.016Z,4.59
2023-02-02T04:57:06.172Z,5.28
2023-02-02T04:59:33.327Z,5.21
2023-02-02T05:02:01.228Z,4.73
2023-02-02T05:04:28.522Z,4.88
2023-02-02T05:06:55.697Z,5.06
2023-02-02T05:09:23.195Z,5.18
2023-02-02T05:11:50.374Z,5.19
2023-02-02T05:14:18.520Z,4.28
2023-02-02T05:16:46.128Z,4.19
2023-02-02T05:19:13.399Z,4.70
2023-02-02T05:21:40.561Z,4.77
2023-02-02T05:24:08.084Z,4.05
2023-02-02T05:26:35.225Z,3.93
2023-02-02T05:29:02.913Z,3.96
2023-02-02T05:31:32.061Z,4.82
2023-02-02T05:33:59.405Z,4.60
2023-02-02T05:36:26.657Z,4.33
2023-02-02T05:38:54.082Z,4.05
2023-02-02T05:41:21.616Z,3.81
2023-02-02T05:43:48.852Z,4.20
2023-02-02T05:46:16.351Z,4.09
2023-02-02T05:48:43.540Z,4.47
2023-02-02T05:51:10.624Z,4.48
2023-02-02T05:53:38.093Z,4.48
2023-02-02T05:56:05.342Z,4.56
2023-02-02T05:58:32.486Z,4.27
2023-02-02T06:00:59.902Z,4.35
2023-02-02T06:03:27.577Z,4.77
2023-02-02T06:05:57.981Z,4.91
2023-02-02T06:08:25.910Z,4.36
2023-02-02T06:10:53.404Z,3.97
2023-02-02T06:13:20.914Z,3.88
2023-02-02T06:15:48.109Z,4.46
2023-02-02T06:18:15.705Z,4.75
2023-02-02T06:20:42.933Z,4.88
2023-02-02T06:23:10.106Z,5.17
2023-02-02T06:25:37.578Z,5.59
2023-02-02T06:28:04.766Z,4.53
2023-02-02T06:30:31.935Z,4.98
2023-02-02T06:32:59.477Z,4.85
2023-02-02T06:35:27.148Z,5.22
2023-02-02T06:37:54.457Z,5.16
2023-02-02T06:40:21.924Z,5.91
2023-02-02T06:42:49.088Z,5.25
2023-02-02T06:45:16.446Z,5.12
2023-02-02T06:47:44.422Z,6.14
2023-02-02T06:50:11.875Z,5.87
2023-02-02T06:52:39.016Z,6.58
2023-02-02T06:55:06.612Z,5.17
2023-02-02T06:57:33.744Z,6.23
2023-02-02T07:00:00.914Z,5.67
2023-02-02T07:02:28.429Z,6.08
2023-02-02T07:04:55.620Z,5.33
2023-02-02T07:07:22.746Z,5.58
2023-02-02T07:09:58.290Z,5.47
2023-02-02T07:12:27.168Z,6.14
2023-02-02T07:14:54.591Z,5.47
2023-02-02T07:17:21.825Z,5.81
2023-02-02T07:19:48.997Z,5.20
2023-02-02T07:22:16.435Z,5.78
2023-02-02T07:24:43.582Z,6.11
2023-02-02T07:27:10.791Z,5.06
2023-02-02T07:29:38.207Z,5.90
2023-02-02T07:32:05.405Z,6.50
2023-02-02T07:34:32.557Z,6.06
2023-02-02T07:37:00.030Z,5.17
2023-02-02T07:39:27.170Z,5.64
2023-02-02T07:41:54.288Z,5.37
2023-02-02T07:44:22.588Z,4.84
2023-02-02T07:46:50.037Z,5.06
2023-02-02T07:49:17.595Z,5.14
2023-02-02T07:51:47.774Z,5.39
2023-02-02T07:54:15.367Z,5.22
2023-02-02T07:56:42.529Z,5.28
2023-02-02T07:59:10.488Z,5.82
2023-02-02T08:01:37.735Z,5.67
2023-02-02T08:04:05.165Z,6.04
2023-02-02T08:06:36.205Z,5.73
2023-02-02T08:09:04.867Z,6.29
2023-02-02T08:11:32.295Z,6.22
2023-02-02T08:13:59.901Z,5.47
2023-02-02T08:16:27.968Z,6.44
2023-02-02T08:18:55.555Z,6.57
2023-02-02T08:21:22.978Z,6.96
2023-02-02T08:23:50.131Z,6.92
2023-02-02T08:26:22.312Z,7.07
2023-02-02T08:28:52.125Z,6.69
2023-02-02T08:31:23.468Z,6.08
2023-02-02T08:33:50.797Z,6.69
2023-02-02T08:36:18.934Z,6.72
2023-02-02T08:38:46.388Z,5.78
2023-02-02T08:41:17.416Z,6.03
2023-02-02T08:43:44.700Z,7.22
2023-02-02T08:46:14.227Z,6.63
2023-02-02T08:48:41.768Z,6.63
2023-02-02T08:51:10.332Z,7.25
2023-02-02T08:53:37.732Z,7.24
2023-02-02T08:56:06.676Z,7.35
2023-02-02T08:58:34.102Z,7.03
2023-02-02T09:01:06.268Z,7.25
2023-02-02T09:03:33.853Z,7.52
2023-02-02T09:06:05.365Z,7.63
2023-02-02T09:08:34.064Z,8.26
2023-02-02T09:11:04.974Z,7.44
2023-02-02T09:13:32.390Z,7.30
2023-02-02T09:16:00.683Z,6.83
2023-02-02T09:18:27.958Z,6.58
2023-02-02T09:20:55.390Z,6.98
2023-02-02T09:23:22.605Z,7.65
2023-02-02T09:25:49.748Z,7.35
2023-02-02T09:28:17.164Z,7.16
2023-02-02T09:30:44.307Z,8.22
2023-02-02T09:33:11.482Z,7.67
2023-02-02T09:35:38.919Z,7.20
2023-02-02T09:38:06.068Z,7.80
2023-02-02T09:40:33.236Z,7.22
2023-02-02T09:43:02.701Z,7.56
2023-02-02T09:45:29.829Z,7.10
2023-02-02T09:48:35.848Z,7.14
2023-02-02T09:51:06.939Z,7.38
2023-02-02T09:53:54.626Z,7.44
2023-02-02T09:56:41.093Z,8.08
2023-02-02T09:59:19.564Z,8.60
2023-02-02T10:01:49.251Z,8.41
2023-02-02T10:04:18.933Z,8.68
2023-02-02T10:06:51.128Z,8.18
2023-02-02T10:09:24.123Z,7.82
2023-02-02T10:12:04.481Z,7.93
2023-02-02T10:14:34.971Z,7.91
2023-02-02T10:17:05.961Z,8.77
2023-02-02T10:19:33.387Z,7.87
2023-02-02T10:22:00.839Z,8.43
2023-02-02T10:24:29.521Z,8.21
2023-02-02T10:27:04.291Z,7.71
2023-02-02T10:29:48.023Z,7.68
2023-02-02T10:32:25.990Z,8.59
2023-02-02T10:35:07.027Z,8.42
2023-02-02T10:38:01.316Z,8.52
2023-02-02T10:40:31.447Z,8.20
2023-02-02T10:43:36.233Z,8.59
2023-02-02T10:46:03.586Z,9.37
2023-02-02T10:48:35.645Z,9.16
2023-02-02T10:51:04.403Z,9.16
2023-02-02T10:53:31.827Z,9.12
2023-02-02T10:56:06.967Z,8.54
2023-02-02T10:58:44.568Z,9.14
2023-02-02T11:01:12.020Z,9.84
2023-02-02T11:03:40.239Z,9.01
2023-02-02T11:06:26.417Z,9.49
2023-02-02T11:08:57.027Z,9.41
2023-02-02T11:11:28.176Z,9.65
2023-02-02T11:14:08.578Z,9.24
2023-02-02T11:16:43.740Z,9.39
2023-02-02T11:19:31.899Z,9.21
2023-02-02T11:21:59.590Z,8.56
2023-02-02T11:24:31.295Z,9.06
2023-02-02T11:27:07.483Z,7.78
2023-02-02T11:29:41.299Z,9.13
2023-02-02T11:32:17.534Z,8.52
2023-02-02T11:34:44.945Z,8.94
2023-02-02T11:37:13.420Z,9.18
2023-02-02T11:39:41.261Z,8.63
2023-02-02T11:42:18.768Z,8.00
2023-02-02T11:44:47.198Z,8.62
2023-02-02T11:47:22.055Z,7.88
2023-02-02T11:49:50.430Z,8.96
2023-02-02T11:52:19.148Z,9.52
2023-02-02T11:54:53.233Z,10.49
2023-02-02T11:57:22.098Z,9.14
2023-02-02T11:59:50.570Z,9.29
2023-02-02T12:02:20.593Z,9.37
2023-02-02T12:04:48.391Z,9.58
2023-02-02T12:07:26.064Z,9.34
2023-02-02T12:09:53.649Z,8.69
2023-02-02T12:12:26.962Z,8.82
2023-02-02T12:15:26.909Z,9.79
2023-02-02T12:18:15.850Z,9.81
2023-02-02T12:20:51.531Z,10.08
2023-02-02T12:23:22.429Z,9.81
2023-02-02T12:25:49.916Z,9.85
2023-02-02T12:28:17.021Z,9.82
2023-02-02T12:31:02.920Z,10.39
2023-02-02T12:33:53.525Z,9.89
2023-02-02T12:36:53.202Z,9.91
2023-02-02T12:39:30.550Z,10.88
2023-02-02T12:42:03.713Z,10.64
2023-02-02T12:44:50.972Z,10.64
2023-02-02T12:47:19.804Z,10.45
2023-02-02T12:49:57.407Z,10.13
2023-02-02T12:52:37.865Z,9.39
2023-02-02T12:55:15.212Z,10.02
2023-02-02T12:58:05.709Z,9.49
2023-02-02T13:00:43.821Z,9.33
2023-02-02T13:03:17.186Z,9.49
2023-02-02T13:05:53.409Z,9.24
2023-02-02T13:08:28.440Z,9.00
2023-02-02T13:10:57.930Z,9.30
2023-02-02T13:13:32.931Z,9.69
2023-02-02T13:16:03.367Z,8.50
2023-02-02T13:18:32.022Z,8.77
2023-02-02T13:21:00.792Z,8.67
2023-02-02T13:23:35.869Z,8.53
2023-02-02T13:26:05.957Z,9.34
2023-02-02T13:28:36.465Z,8.92
2023-02-02T13:31:06.447Z,8.59
2023-02-02T13:33:34.775Z,8.77
2023-02-02T13:36:02.819Z,8.44
2023-02-02T13:38:30.652Z,8.16
2023-02-02T13:40:59.420Z,8.43
2023-02-02T13:43:32.652Z,9.08
2023-02-02T13:46:12.325Z,8.04
2023-02-02T13:48:41.606Z,8.01
2023-02-02T13:51:28.558Z,8.35
2023-02-02T13:54:11.026Z,8.19
2023-02-02T13:56:44.300Z,8.48
2023-02-02T13:59:11.361Z,8.62
2023-02-02T14:01:41.401Z,9.48
2023-02-02T14:04:17.051Z,9.04
2023-02-02T14:06:57.331Z,8.62
2023-02-02T14:09:25.576Z,8.50
2023-02-02T14:11:56.072Z,8.06
2023-02-02T14:14:31.982Z,7.83
2023-02-02T14:17:00.312Z,7.77
2023-02-02T14:19:27.389Z,8.13
2023-02-02T14:22:00.664Z,8.05
2023-02-02T14:24:37.369Z,8.20
2023-02-02T14:27:07.291Z,8.39
2023-02-02T14:29:39.485Z,8.33
2023-02-02T14:32:06.903Z,8.29
2023-02-02T14:34:40.301Z,8.33
2023-02-02T14:37:14.348Z,8.87
2023-02-02T14:40:01.971Z,8.62
2023-02-02T14:43:01.283Z,7.82
2023-02-02T14:45:41.723Z,8.03
2023-02-02T14:48:18.988Z,8.21
2023-02-02T14:50:53.554Z,7.66
2023-02-02T14:53:36.088Z,8.27
2023-02-02T14:56:08.952Z,8.19
2023-02-02T14:58:36.063Z,8.05
2023-02-02T15:01:09.544Z,8.57
2023-02-02T15:03:50.349Z,7.78
2023-02-02T15:06:28.718Z,7.98
2023-02-02T15:09:14.630Z,7.45
2023-02-02T15:12:03.488Z,7.73
2023-02-02T15:14:47.565Z,6.78
2023-02-02T15:17:33.859Z,7.85
2023-02-02T15:20:20.775Z,7.16
2023-02-02T15:22:50.478Z,7.07
2023-02-02T15:25:22.059Z,6.92
2023-02-02T15:28:08.963Z,6.85
2023-02-02T15:30:37.908Z,6.86
2023-02-02T15:33:10.425Z,7.04
2023-02-02T15:35:38.361Z,6.86
2023-02-02T15:38:06.779Z,7.27
2023-02-02T15:40:34.157Z,7.52
2023-02-02T15:43:07.263Z,6.91
2023-02-02T15:45:52.142Z,7.09
2023-02-02T15:48:19.287Z,7.55
2023-02-02T15:50:47.113Z,6.39
2023-02-02T15:53:16.756Z,6.27
2023-02-02T15:55:43.901Z,6.41
2023-02-02T15:58:24.176Z,6.48
2023-02-02T16:00:59.374Z,6.80
2023-02-02T16:03:29.748Z,6.85
2023-02-02T16:05:56.847Z,6.15
2023-02-02T16:08:30.088Z,7.05
2023-02-02T16:11:03.743Z,6.77
2023-02-02T16:13:31.354Z,6.66
2023-02-02T16:15:59.896Z,6.18
2023-02-02T16:18:27.140Z,7.35
2023-02-02T16:20:54.400Z,6.48
2023-02-02T16:23:23.907Z,6.76
2023-02-02T16:25:51.805Z,7.46
2023-02-02T16:28:19.011Z,7.59
2023-02-02T16:30:46.539Z,7.18
2023-02-02T16:33:32.366Z,7.65
2023-02-02T16:35:59.948Z,7.29
2023-02-02T16:38:31.125Z,6.85
2023-02-02T16:41:11.551Z,6.48
2023-02-02T16:43:39.871Z,7.28
2023-02-02T16:46:17.875Z,6.44
2023-02-02T16:48:45.937Z,7.16
2023-02-02T16:51:16.038Z,6.64
2023-02-02T16:53:45.055Z,6.36
2023-02-02T16:56:31.438Z,6.89
2023-02-02T16:58:59.764Z,6.69
2023-02-02T17:01:32.533Z,6.90
2023-02-02T17:04:00.020Z,7.09
2023-02-02T17:06:33.166Z,6.46
2023-02-02T17:09:16.087Z,6.61
2023-02-02T17:11:59.607Z,6.77
2023-02-02T17:14:27.873Z,7.11
2023-02-02T17:16:56.146Z,6.43
2023-02-02T17:19:23.506Z,7.01
2023-02-02T17:21:50.697Z,7.77
2023-02-02T17:24:18.958Z,7.72
2023-02-02T17:26:48.134Z,7.43
2023-02-02T17:29:16.506Z,7.43
2023-02-02T17:31:44.878Z,7.95
2023-02-02T17:34:14.707Z,8.74
2023-02-02T17:36:42.850Z,8.52
2023-02-02T17:39:11.768Z,8.39
2023-02-02T17:41:40.246Z,7.64
2023-02-02T17:44:09.274Z,8.09
2023-02-02T17:46:39.073Z,8.40
2023-02-02T17:49:07.502Z,7.25
2023-02-02T17:51:41.153Z,7.76
2023-02-02T17:54:10.971Z,8.36
2023-02-02T17:56:38.676Z,8.32
2023-02-02T17:59:06.313Z,8.66
2023-02-02T18:01:35.256Z,7.48
2023-02-02T18:04:04.263Z,8.17
2023-02-02T18:06:31.742Z,8.10
2023-02-02T18:09:00.351Z,9.19
2023-02-02T18:11:27.988Z,8.76
2023-02-02T18:13:56.613Z,9.55
2023-02-02T18:16:23.914Z,10.26
2023-02-02T18:18:51.762Z,9.68
2023-02-02T18:21:19.040Z,8.62
2023-02-02T18:23:47.615Z,8.46
2023-02-02T18:26:19.446Z,9.17
2023-02-02T18:28:49.897Z,9.30
2023-02-02T18:31:19.590Z,9.43
2023-02-02T18:33:47.642Z,8.43
2023-02-02T18:36:20.012Z,9.62
2023-02-02T18:38:51.384Z,8.90
2023-02-02T18:41:20.787Z,9.46
2023-02-02T18:43:49.050Z,8.53
2023-02-02T18:46:16.834Z,8.83
2023-02-02T18:48:44.514Z,7.34
2023-02-02T18:51:16.074Z,8.18
2023-02-02T18:53:44.207Z,7.74
2023-02-02T18:56:12.809Z,8.50
2023-02-02T18:58:40.639Z,7.79
2023-02-02T19:01:12.283Z,7.65
2023-02-02T19:03:41.008Z,7.53
2023-02-02T19:06:35.005Z,7.80
2023-02-02T19:09:03.103Z,7.28
2023-02-02T19:11:39.005Z,7.89
2023-02-02T19:14:10.874Z,7.66
2023-02-02T19:16:38.421Z,7.72
2023-02-02T19:19:26.812Z,6.76
2023-02-02T19:21:56.483Z,7.14
2023-02-02T19:24:28.070Z,6.19
2023-02-02T19:26:59.260Z,7.48
2023-02-02T19:29:28.770Z,6.50
2023-02-02T19:31:56.852Z,6.99
2023-02-02T19:34:25.815Z,7.70
2023-02-02T19:36:58.317Z,7.53
2023-02-02T19:39:31.510Z,6.49
2023-02-02T19:41:59.944Z,7.21
2023-02-02T19:44:32.181Z,6.82
2023-02-02T19:47:00.627Z,6.75
2023-02-02T19:49:32.254Z,6.50
2023-02-02T19:52:00.495Z,6.34
2023-02-02T19:54:35.647Z,6.21
2023-02-02T19:57:22.237Z,6.31
2023-02-02T19:59:50.565Z,6.31
2023-02-02T20:02:37.146Z,6.49
2023-02-02T20:05:11.307Z,6.16
2023-02-02T20:07:39.650Z,6.96
2023-02-02T20:10:14.761Z,7.32
2023-02-02T20:12:42.231Z,7.48
2023-02-02T20:15:25.916Z,7.04
2023-02-02T20:17:54.407Z,7.90
2023-02-02T20:20:27.439Z,6.80
2023-02-02T20:22:56.789Z,7.30
2023-02-02T20:25:25.101Z,6.87
2023-02-02T20:27:54.362Z,7.53
2023-02-02T20:30:30.969Z,7.37
2023-02-02T20:33:00.371Z,7.39
2023-02-02T20:35:39.218Z,7.06
2023-02-02T20:38:15.258Z,7.68
2023-02-02T20:40:44.910Z,8.05
2023-02-02T20:43:16.054Z,7.71
2023-02-02T20:45:44.193Z,7.10
2023-02-02T20:48:12.560Z,6.73
2023-02-02T20:50:40.686Z,6.77
2023-02-02T20:53:10.301Z,7.48
2023-02-02T20:55:37.484Z,7.09
2023-02-02T20:58:06.447Z,7.93
2023-02-02T21:00:34.037Z,6.76
2023-02-02T21:03:01.255Z,7.40
2023-02-02T21:05:28.659Z,6.82
2023-02-02T21:07:58.970Z,8.12
2023-02-02T21:10:26.712Z,7.87
2023-02-02T21:12:55.749Z,8.86
2023-02-02T21:15:25.657Z,8.57
2023-02-02T21:17:53.013Z,7.53
2023-02-02T21:20:20.874Z,7.49
2023-02-02T21:22:48.523Z,7.97
2023-02-02T21:25:16.111Z,7.62
2023-02-02T21:27:45.587Z,6.46
2023-02-02T21:30:14.155Z,6.66
2023-02-02T21:32:41.341Z,6.61
2023-02-02T21:35:08.677Z,6.94
2023-02-02T21:37:37.318Z,6.70
2023-02-02T21:40:12.559Z,6.89
2023-02-02T21:42:39.942Z,7.12
2023-02-02T21:45:28.612Z,7.07
2023-02-02T21:47:57.619Z,6.25
2023-02-02T21:50:27.297Z,7.64
2023-02-02T21:53:09.867Z,6.52
2023-02-02T21:55:37.864Z,7.65
2023-02-02T21:58:17.396Z,6.59
2023-02-02T22:00:44.810Z,6.37
2023-02-02T22:03:20.158Z,5.86
2023-02-02T22:05:47.271Z,5.81
2023-02-02T22:08:21.274Z,6.12
2023-02-02T22:10:48.503Z,6.67
2023-02-02T22:13:16.880Z,5.99
2023-02-02T22:15:48.043Z,5.70
2023-02-02T22:18:19.786Z,5.97
2023-02-02T22:20:47.991Z,6.11
2023-02-02T22:23:16.377Z,5.19
2023-02-02T22:25:43.559Z,5.35
2023-02-02T22:28:14.293Z,5.02
2023-02-02T22:30:42.030Z,4.85
2023-02-02T22:33:09.956Z,5.88
2023-02-02T22:35:37.089Z,5.42
2023-02-02T22:38:04.741Z,5.34
2023-02-02T22:40:31.907Z,5.71
2023-02-02T22:43:00.736Z,6.46
2023-02-02T22:45:28.228Z,6.24
2023-02-02T22:47:55.352Z,5.95
2023-02-02T22:50:27.000Z,5.60
2023-02-02T22:52:54.527Z,6.51
2023-02-02T22:55:21.682Z,7.27
2023-02-02T22:57:48.798Z,7.00
2023-02-02T23:00:17.385Z,6.83
2023-02-02T23:02:44.564Z,6.28
2023-02-02T23:05:12.522Z,6.13
2023-02-02T23:07:39.929Z,7.15
2023-02-02T23:10:08.983Z,7.07
2023-02-02T23:12:36.102Z,7.18
2023-02-02T23:15:03.538Z,6.22
2023-02-02T23:17:31.785Z,6.68
2023-02-02T23:20:00.114Z,7.11
2023-02-02T23:22:28.576Z,6.76
2023-02-02T23:27:54.279Z,6.86
2023-02-02T23:30:24.363Z,6.86
2023-02-02T23:32:52.943Z,5.92
2023-02-02T23:35:20.180Z,6.01
2023-02-02T23:37:47.847Z,4.56
2023-02-02T23:40:14.938Z,5.47
2023-02-02T23:42:42.121Z,5.57
2023-02-02T23:45:10.061Z,4.87
2023-02-02T23:47:37.167Z,5.58
2023-02-02T23:50:05.093Z,4.93
2023-02-02T23:52:33.039Z,5.66
2023-02-02T23:55:00.587Z,6.34
2023-02-02T23:57:27.768Z,6.20
2023-02-02T23:59:57.453Z,5.69
